sensor_id;sensor_type;location;lat;lon;timestamp;P1;durP1;ratioP1;P2;durP2;ratioP2
46282;SDS011;32017;43.700;11.820;2023-05-20T00:01:40;5.40;;;3.25;;
46282;SDS011;32017;43.700;11.820;2023-05-20T00:04:01;3.60;;;3.47;;
46282;SDS011;32017;43.700;11.820;2023-05-20T00:06:22;2.80;;;2.80;;
46282;SDS011;32017;43.700;11.820;2023-05-20T00:08:41;2.30;;;2.30;;
46282;SDS011;32017;43.700;11.820;2023-05-20T00:11:02;3.50;;;3.30;;
46282;SDS011;32017;43.700;11.820;2023-05-20T00:13:22;3.17;;;3.10;;
46282;SDS011;32017;43.700;11.820;2023-05-20T00:15:43;2.72;;;2.72;;
46282;SDS011;32017;43.700;11.820;2023-05-20T00:18:03;3.75;;;3.67;;
46282;SDS011;32017;43.700;11.820;2023-05-20T00:20:23;3.40;;;3.30;;
46282;SDS011;32017;43.700;11.820;2023-05-20T00:22:44;3.25;;;3.15;;
46282;SDS011;32017;43.700;11.820;2023-05-20T00:25:04;3.78;;;3.47;;
46282;SDS011;32017;43.700;11.820;2023-05-20T00:27:24;3.17;;;3.17;;
46282;SDS011;32017;43.700;11.820;2023-05-20T00:29:45;3.22;;;3.03;;
46282;SDS011;32017;43.700;11.820;2023-05-20T00:32:05;3.55;;;3.45;;
46282;SDS011;32017;43.700;11.820;2023-05-20T00:34:26;3.03;;;2.92;;
46282;SDS011;32017;43.700;11.820;2023-05-20T00:36:46;4.00;;;3.63;;
46282;SDS011;32017;43.700;11.820;2023-05-20T00:39:06;3.22;;;3.13;;
46282;SDS011;32017;43.700;11.820;2023-05-20T00:41:26;3.60;;;3.45;;
46282;SDS011;32017;43.700;11.820;2023-05-20T00:43:46;2.67;;;2.47;;
46282;SDS011;32017;43.700;11.820;2023-05-20T00:46:06;2.88;;;2.88;;
46282;SDS011;32017;43.700;11.820;2023-05-20T00:48:28;3.47;;;3.38;;
46282;SDS011;32017;43.700;11.820;2023-05-20T00:53:10;3.47;;;3.38;;
46282;SDS011;32017;43.700;11.820;2023-05-20T00:55:30;3.63;;;3.33;;
46282;SDS011;32017;43.700;11.820;2023-05-20T00:57:51;2.80;;;2.60;;
46282;SDS011;32017;43.700;11.820;2023-05-20T01:00:11;2.88;;;2.78;;
46282;SDS011;32017;43.700;11.820;2023-05-20T01:02:32;3.30;;;3.20;;
46282;SDS011;32017;43.700;11.820;2023-05-20T01:04:52;3.47;;;3.33;;
46282;SDS011;32017;43.700;11.820;2023-05-20T01:07:15;3.42;;;3.30;;
46282;SDS011;32017;43.700;11.820;2023-05-20T01:09:36;2.95;;;2.95;;
46282;SDS011;32017;43.700;11.820;2023-05-20T01:14:20;3.88;;;3.55;;
46282;SDS011;32017;43.700;11.820;2023-05-20T01:16:43;3.30;;;3.30;;
46282;SDS011;32017;43.700;11.820;2023-05-20T01:19:08;3.42;;;3.38;;
46282;SDS011;32017;43.700;11.820;2023-05-20T01:21:33;4.85;;;4.55;;
46282;SDS011;32017;43.700;11.820;2023-05-20T01:23:54;3.55;;;3.45;;
46282;SDS011;32017;43.700;11.820;2023-05-20T01:26:15;3.53;;;3.35;;
46282;SDS011;32017;43.700;11.820;2023-05-20T01:28:37;3.73;;;3.63;;
46282;SDS011;32017;43.700;11.820;2023-05-20T01:30:58;3.00;;;3.00;;
46282;SDS011;32017;43.700;11.820;2023-05-20T01:33:20;4.50;;;2.67;;
46282;SDS011;32017;43.700;11.820;2023-05-20T01:35:41;2.47;;;2.47;;
46282;SDS011;32017;43.700;11.820;2023-05-20T01:38:02;3.00;;;3.00;;
46282;SDS011;32017;43.700;11.820;2023-05-20T01:40:24;3.47;;;3.17;;
46282;SDS011;32017;43.700;11.820;2023-05-20T01:42:46;4.15;;;3.80;;
46282;SDS011;32017;43.700;11.820;2023-05-20T01:45:11;3.20;;;3.20;;
46282;SDS011;32017;43.700;11.820;2023-05-20T01:47:31;2.97;;;2.88;;
46282;SDS011;32017;43.700;11.820;2023-05-20T01:49:51;3.33;;;3.22;;
46282;SDS011;32017;43.700;11.820;2023-05-20T01:52:12;3.53;;;3.20;;
46282;SDS011;32017;43.700;11.820;2023-05-20T01:54:32;4.03;;;3.83;;
46282;SDS011;32017;43.700;11.820;2023-05-20T01:56:53;2.95;;;2.72;;
46282;SDS011;32017;43.700;11.820;2023-05-20T01:59:13;3.15;;;3.05;;
46282;SDS011;32017;43.700;11.820;2023-05-20T02:01:33;3.22;;;3.13;;
46282;SDS011;32017;43.700;11.820;2023-05-20T02:03:53;3.65;;;3.42;;
46282;SDS011;32017;43.700;11.820;2023-05-20T02:06:14;3.40;;;3.40;;
46282;SDS011;32017;43.700;11.820;2023-05-20T02:08:34;6.55;;;3.13;;
46282;SDS011;32017;43.700;11.820;2023-05-20T02:10:54;3.83;;;3.72;;
46282;SDS011;32017;43.700;11.820;2023-05-20T02:13:14;3.45;;;3.25;;
46282;SDS011;32017;43.700;11.820;2023-05-20T02:15:35;3.55;;;3.45;;
46282;SDS011;32017;43.700;11.820;2023-05-20T02:17:56;3.47;;;3.28;;
46282;SDS011;32017;43.700;11.820;2023-05-20T02:20:16;3.40;;;3.30;;
46282;SDS011;32017;43.700;11.820;2023-05-20T02:22:37;6.95;;;4.55;;
46282;SDS011;32017;43.700;11.820;2023-05-20T02:24:57;4.13;;;4.03;;
46282;SDS011;32017;43.700;11.820;2023-05-20T02:27:18;3.83;;;3.72;;
46282;SDS011;32017;43.700;11.820;2023-05-20T02:29:38;3.42;;;3.13;;
46282;SDS011;32017;43.700;11.820;2023-05-20T02:31:58;3.65;;;3.50;;
46282;SDS011;32017;43.700;11.820;2023-05-20T02:34:19;4.82;;;3.88;;
46282;SDS011;32017;43.700;11.820;2023-05-20T02:36:39;4.57;;;4.38;;
46282;SDS011;32017;43.700;11.820;2023-05-20T02:39:00;3.88;;;3.60;;
46282;SDS011;32017;43.700;11.820;2023-05-20T02:41:20;4.32;;;4.20;;
46282;SDS011;32017;43.700;11.820;2023-05-20T02:43:40;3.53;;;3.42;;
46282;SDS011;32017;43.700;11.820;2023-05-20T02:46:03;3.25;;;3.15;;
46282;SDS011;32017;43.700;11.820;2023-05-20T02:48:23;3.75;;;3.65;;
46282;SDS011;32017;43.700;11.820;2023-05-20T02:50:45;4.40;;;4.10;;
46282;SDS011;32017;43.700;11.820;2023-05-20T02:53:06;4.60;;;4.40;;
46282;SDS011;32017;43.700;11.820;2023-05-20T02:55:26;3.47;;;3.38;;
46282;SDS011;32017;43.700;11.820;2023-05-20T02:57:46;3.72;;;3.67;;
46282;SDS011;32017;43.700;11.820;2023-05-20T03:00:07;3.83;;;3.83;;
46282;SDS011;32017;43.700;11.820;2023-05-20T03:02:31;3.88;;;3.85;;
46282;SDS011;32017;43.700;11.820;2023-05-20T03:04:51;4.00;;;3.78;;
46282;SDS011;32017;43.700;11.820;2023-05-20T03:07:12;4.28;;;4.05;;
46282;SDS011;32017;43.700;11.820;2023-05-20T03:09:35;3.83;;;3.70;;
46282;SDS011;32017;43.700;11.820;2023-05-20T03:11:55;4.28;;;4.18;;
46282;SDS011;32017;43.700;11.820;2023-05-20T03:14:15;3.72;;;3.53;;
46282;SDS011;32017;43.700;11.820;2023-05-20T03:16:36;4.43;;;4.05;;
46282;SDS011;32017;43.700;11.820;2023-05-20T03:18:56;5.53;;;4.18;;
46282;SDS011;32017;43.700;11.820;2023-05-20T03:21:16;4.28;;;3.90;;
46282;SDS011;32017;43.700;11.820;2023-05-20T03:23:36;4.28;;;4.18;;
46282;SDS011;32017;43.700;11.820;2023-05-20T03:25:56;3.58;;;3.47;;
46282;SDS011;32017;43.700;11.820;2023-05-20T03:28:16;4.35;;;4.25;;
46282;SDS011;32017;43.700;11.820;2023-05-20T03:30:37;3.97;;;3.97;;
46282;SDS011;32017;43.700;11.820;2023-05-20T03:32:57;4.30;;;4.10;;
46282;SDS011;32017;43.700;11.820;2023-05-20T03:35:18;4.07;;;3.85;;
46282;SDS011;32017;43.700;11.820;2023-05-20T03:37:38;5.07;;;4.68;;
46282;SDS011;32017;43.700;11.820;2023-05-20T03:39:59;4.15;;;4.05;;
46282;SDS011;32017;43.700;11.820;2023-05-20T03:42:19;5.20;;;5.03;;
46282;SDS011;32017;43.700;11.820;2023-05-20T03:44:39;4.70;;;4.60;;
46282;SDS011;32017;43.700;11.820;2023-05-20T03:46:59;4.07;;;3.95;;
46282;SDS011;32017;43.700;11.820;2023-05-20T03:49:20;4.28;;;4.18;;
46282;SDS011;32017;43.700;11.820;2023-05-20T03:51:40;4.10;;;4.00;;
46282;SDS011;32017;43.700;11.820;2023-05-20T03:54:00;6.03;;;4.00;;
46282;SDS011;32017;43.700;11.820;2023-05-20T03:56:21;4.43;;;4.32;;
46282;SDS011;32017;43.700;11.820;2023-05-20T03:58:41;3.70;;;3.50;;
46282;SDS011;32017;43.700;11.820;2023-05-20T04:01:01;4.68;;;4.47;;
46282;SDS011;32017;43.700;11.820;2023-05-20T04:03:22;4.53;;;4.32;;
46282;SDS011;32017;43.700;11.820;2023-05-20T04:05:42;3.95;;;3.85;;
46282;SDS011;32017;43.700;11.820;2023-05-20T04:08:03;3.63;;;3.53;;
46282;SDS011;32017;43.700;11.820;2023-05-20T04:10:23;4.30;;;4.15;;
46282;SDS011;32017;43.700;11.820;2023-05-20T04:12:43;3.95;;;3.80;;
46282;SDS011;32017;43.700;11.820;2023-05-20T04:15:04;4.53;;;4.40;;
46282;SDS011;32017;43.700;11.820;2023-05-20T04:17:26;3.72;;;3.60;;
46282;SDS011;32017;43.700;11.820;2023-05-20T04:19:48;4.18;;;4.10;;
46282;SDS011;32017;43.700;11.820;2023-05-20T04:22:08;3.10;;;3.08;;
46282;SDS011;32017;43.700;11.820;2023-05-20T04:24:29;2.83;;;2.72;;
46282;SDS011;32017;43.700;11.820;2023-05-20T04:26:49;3.53;;;3.42;;
46282;SDS011;32017;43.700;11.820;2023-05-20T04:29:10;3.00;;;3.00;;
46282;SDS011;32017;43.700;11.820;2023-05-20T04:31:30;3.15;;;3.15;;
46282;SDS011;32017;43.700;11.820;2023-05-20T04:33:54;3.83;;;3.30;;
46282;SDS011;32017;43.700;11.820;2023-05-20T04:36:14;3.63;;;3.63;;
46282;SDS011;32017;43.700;11.820;2023-05-20T04:38:34;2.95;;;2.88;;
46282;SDS011;32017;43.700;11.820;2023-05-20T04:40:55;4.03;;;3.92;;
46282;SDS011;32017;43.700;11.820;2023-05-20T04:43:19;3.00;;;2.90;;
46282;SDS011;32017;43.700;11.820;2023-05-20T04:45:40;3.28;;;3.17;;
46282;SDS011;32017;43.700;11.820;2023-05-20T04:48:00;3.22;;;3.03;;
46282;SDS011;32017;43.700;11.820;2023-05-20T04:50:21;3.08;;;2.83;;
46282;SDS011;32017;43.700;11.820;2023-05-20T04:52:41;3.03;;;3.00;;
46282;SDS011;32017;43.700;11.820;2023-05-20T04:55:07;3.00;;;2.80;;
46282;SDS011;32017;43.700;11.820;2023-05-20T04:57:30;2.85;;;2.80;;
46282;SDS011;32017;43.700;11.820;2023-05-20T04:59:52;3.45;;;3.35;;
46282;SDS011;32017;43.700;11.820;2023-05-20T05:02:17;3.03;;;2.92;;
46282;SDS011;32017;43.700;11.820;2023-05-20T05:04:37;2.42;;;2.42;;
46282;SDS011;32017;43.700;11.820;2023-05-20T05:06:57;2.90;;;2.80;;
46282;SDS011;32017;43.700;11.820;2023-05-20T05:09:17;3.30;;;3.20;;
46282;SDS011;32017;43.700;11.820;2023-05-20T05:11:37;2.75;;;2.75;;
46282;SDS011;32017;43.700;11.820;2023-05-20T05:13:58;2.90;;;2.90;;
46282;SDS011;32017;43.700;11.820;2023-05-20T05:16:18;3.10;;;2.95;;
46282;SDS011;32017;43.700;11.820;2023-05-20T05:18:38;2.88;;;2.80;;
46282;SDS011;32017;43.700;11.820;2023-05-20T05:21:02;2.47;;;2.47;;
46282;SDS011;32017;43.700;11.820;2023-05-20T05:23:23;4.25;;;4.05;;
46282;SDS011;32017;43.700;11.820;2023-05-20T05:25:43;3.22;;;3.13;;
46282;SDS011;32017;43.700;11.820;2023-05-20T05:28:03;2.78;;;2.67;;
46282;SDS011;32017;43.700;11.820;2023-05-20T05:30:24;3.28;;;3.17;;
46282;SDS011;32017;43.700;11.820;2023-05-20T05:32:44;3.20;;;3.10;;
46282;SDS011;32017;43.700;11.820;2023-05-20T05:35:05;3.20;;;3.00;;
46282;SDS011;32017;43.700;11.820;2023-05-20T05:37:27;2.72;;;2.72;;
46282;SDS011;32017;43.700;11.820;2023-05-20T05:39:47;4.90;;;2.95;;
46282;SDS011;32017;43.700;11.820;2023-05-20T05:42:07;3.10;;;2.88;;
46282;SDS011;32017;43.700;11.820;2023-05-20T05:44:28;5.63;;;3.25;;
46282;SDS011;32017;43.700;11.820;2023-05-20T05:46:48;2.42;;;2.42;;
46282;SDS011;32017;43.700;11.820;2023-05-20T05:49:08;3.47;;;3.28;;
46282;SDS011;32017;43.700;11.820;2023-05-20T05:51:28;2.95;;;2.85;;
46282;SDS011;32017;43.700;11.820;2023-05-20T05:53:49;2.42;;;2.42;;
46282;SDS011;32017;43.700;11.820;2023-05-20T05:56:09;3.55;;;3.55;;
46282;SDS011;32017;43.700;11.820;2023-05-20T05:58:30;3.88;;;3.67;;
46282;SDS011;32017;43.700;11.820;2023-05-20T06:00:51;3.80;;;3.70;;
46282;SDS011;32017;43.700;11.820;2023-05-20T06:03:12;4.65;;;4.45;;
46282;SDS011;32017;43.700;11.820;2023-05-20T06:05:33;5.20;;;5.10;;
46282;SDS011;32017;43.700;11.820;2023-05-20T06:07:54;5.32;;;5.22;;
46282;SDS011;32017;43.700;11.820;2023-05-20T06:10:14;3.65;;;3.50;;
46282;SDS011;32017;43.700;11.820;2023-05-20T06:12:34;3.72;;;3.65;;
46282;SDS011;32017;43.700;11.820;2023-05-20T06:14:54;3.78;;;3.67;;
46282;SDS011;32017;43.700;11.820;2023-05-20T06:17:15;4.95;;;4.65;;
46282;SDS011;32017;43.700;11.820;2023-05-20T06:19:35;4.57;;;4.38;;
46282;SDS011;32017;43.700;11.820;2023-05-20T06:21:56;4.03;;;3.92;;
46282;SDS011;32017;43.700;11.820;2023-05-20T06:24:17;3.25;;;3.25;;
46282;SDS011;32017;43.700;11.820;2023-05-20T06:26:37;4.32;;;4.22;;
46282;SDS011;32017;43.700;11.820;2023-05-20T06:28:57;4.43;;;4.32;;
46282;SDS011;32017;43.700;11.820;2023-05-20T06:31:17;4.30;;;4.22;;
46282;SDS011;32017;43.700;11.820;2023-05-20T06:33:38;4.20;;;4.10;;
46282;SDS011;32017;43.700;11.820;2023-05-20T06:35:58;4.65;;;4.55;;
46282;SDS011;32017;43.700;11.820;2023-05-20T06:38:20;3.45;;;3.45;;
46282;SDS011;32017;43.700;11.820;2023-05-20T06:40:41;3.53;;;3.53;;
46282;SDS011;32017;43.700;11.820;2023-05-20T06:43:01;3.30;;;3.30;;
46282;SDS011;32017;43.700;11.820;2023-05-20T06:45:21;3.67;;;3.58;;
46282;SDS011;32017;43.700;11.820;2023-05-20T06:47:41;3.80;;;3.70;;
46282;SDS011;32017;43.700;11.820;2023-05-20T06:50:02;3.90;;;3.80;;
46282;SDS011;32017;43.700;11.820;2023-05-20T06:52:22;4.30;;;4.20;;
46282;SDS011;32017;43.700;11.820;2023-05-20T06:54:42;4.20;;;4.10;;
46282;SDS011;32017;43.700;11.820;2023-05-20T06:57:03;4.60;;;4.50;;
46282;SDS011;32017;43.700;11.820;2023-05-20T06:59:24;3.50;;;3.42;;
46282;SDS011;32017;43.700;11.820;2023-05-20T07:01:44;4.20;;;4.10;;
46282;SDS011;32017;43.700;11.820;2023-05-20T07:04:04;4.45;;;4.28;;
46282;SDS011;32017;43.700;11.820;2023-05-20T07:06:25;3.75;;;3.72;;
46282;SDS011;32017;43.700;11.820;2023-05-20T07:08:45;3.13;;;3.13;;
46282;SDS011;32017;43.700;11.820;2023-05-20T07:11:05;4.13;;;4.03;;
46282;SDS011;32017;43.700;11.820;2023-05-20T07:13:25;4.30;;;4.20;;
46282;SDS011;32017;43.700;11.820;2023-05-20T07:15:46;3.28;;;3.17;;
46282;SDS011;32017;43.700;11.820;2023-05-20T07:18:06;3.50;;;3.40;;
46282;SDS011;32017;43.700;11.820;2023-05-20T07:20:26;3.28;;;3.17;;
46282;SDS011;32017;43.700;11.820;2023-05-20T07:22:46;4.63;;;4.53;;
46282;SDS011;32017;43.700;11.820;2023-05-20T07:25:09;4.50;;;4.40;;
46282;SDS011;32017;43.700;11.820;2023-05-20T07:27:29;3.78;;;3.58;;
46282;SDS011;32017;43.700;11.820;2023-05-20T07:29:50;4.45;;;4.35;;
46282;SDS011;32017;43.700;11.820;2023-05-20T07:32:10;5.35;;;5.10;;
46282;SDS011;32017;43.700;11.820;2023-05-20T07:34:30;4.25;;;4.15;;
46282;SDS011;32017;43.700;11.820;2023-05-20T07:36:51;4.47;;;4.28;;
46282;SDS011;32017;43.700;11.820;2023-05-20T07:39:12;4.40;;;4.30;;
46282;SDS011;32017;43.700;11.820;2023-05-20T07:41:34;5.85;;;5.65;;
46282;SDS011;32017;43.700;11.820;2023-05-20T07:43:54;4.43;;;4.32;;
46282;SDS011;32017;43.700;11.820;2023-05-20T07:46:15;4.72;;;4.53;;
46282;SDS011;32017;43.700;11.820;2023-05-20T07:48:38;5.32;;;5.07;;
46282;SDS011;32017;43.700;11.820;2023-05-20T07:50:58;4.38;;;4.22;;
46282;SDS011;32017;43.700;11.820;2023-05-20T07:53:19;4.18;;;4.07;;
46282;SDS011;32017;43.700;11.820;2023-05-20T07:55:39;4.82;;;4.72;;
46282;SDS011;32017;43.700;11.820;2023-05-20T07:58:00;5.07;;;4.88;;
46282;SDS011;32017;43.700;11.820;2023-05-20T08:00:20;4.07;;;3.97;;
46282;SDS011;32017;43.700;11.820;2023-05-20T08:02:40;6.70;;;4.93;;
46282;SDS011;32017;43.700;11.820;2023-05-20T08:05:01;3.78;;;3.67;;
46282;SDS011;32017;43.700;11.820;2023-05-20T08:07:23;4.40;;;4.20;;
46282;SDS011;32017;43.700;11.820;2023-05-20T08:09:43;3.85;;;3.75;;
46282;SDS011;32017;43.700;11.820;2023-05-20T08:12:04;4.05;;;3.95;;
46282;SDS011;32017;43.700;11.820;2023-05-20T08:14:24;4.32;;;4.22;;
46282;SDS011;32017;43.700;11.820;2023-05-20T08:16:44;4.82;;;4.72;;
46282;SDS011;32017;43.700;11.820;2023-05-20T08:19:05;5.28;;;5.07;;
46282;SDS011;32017;43.700;11.820;2023-05-20T08:21:25;3.38;;;3.33;;
46282;SDS011;32017;43.700;11.820;2023-05-20T08:23:45;4.72;;;4.53;;
46282;SDS011;32017;43.700;11.820;2023-05-20T08:26:06;3.72;;;3.63;;
46282;SDS011;32017;43.700;11.820;2023-05-20T08:28:27;3.13;;;3.03;;
46282;SDS011;32017;43.700;11.820;2023-05-20T08:30:47;4.45;;;4.35;;
46282;SDS011;32017;43.700;11.820;2023-05-20T08:33:07;4.18;;;4.07;;
46282;SDS011;32017;43.700;11.820;2023-05-20T08:35:28;4.70;;;4.60;;
46282;SDS011;32017;43.700;11.820;2023-05-20T08:37:48;4.32;;;4.22;;
46282;SDS011;32017;43.700;11.820;2023-05-20T08:40:09;4.32;;;4.22;;
46282;SDS011;32017;43.700;11.820;2023-05-20T08:42:30;3.30;;;3.20;;
46282;SDS011;32017;43.700;11.820;2023-05-20T08:44:51;3.00;;;3.00;;
46282;SDS011;32017;43.700;11.820;2023-05-20T08:47:11;3.63;;;3.42;;
46282;SDS011;32017;43.700;11.820;2023-05-20T08:49:31;4.55;;;4.45;;
46282;SDS011;32017;43.700;11.820;2023-05-20T08:51:51;4.18;;;4.07;;
46282;SDS011;32017;43.700;11.820;2023-05-20T08:54:12;4.60;;;4.50;;
46282;SDS011;32017;43.700;11.820;2023-05-20T08:56:32;4.60;;;4.50;;
46282;SDS011;32017;43.700;11.820;2023-05-20T08:58:52;3.60;;;3.50;;
46282;SDS011;32017;43.700;11.820;2023-05-20T09:01:13;5.03;;;4.93;;
46282;SDS011;32017;43.700;11.820;2023-05-20T09:03:34;4.47;;;4.38;;
46282;SDS011;32017;43.700;11.820;2023-05-20T09:06:02;4.07;;;3.80;;
46282;SDS011;32017;43.700;11.820;2023-05-20T09:08:23;3.95;;;3.85;;
46282;SDS011;32017;43.700;11.820;2023-05-20T09:10:47;3.70;;;3.60;;
46282;SDS011;32017;43.700;11.820;2023-05-20T09:13:07;3.80;;;3.60;;
46282;SDS011;32017;43.700;11.820;2023-05-20T09:15:28;2.78;;;2.78;;
46282;SDS011;32017;43.700;11.820;2023-05-20T09:17:49;3.70;;;3.60;;
46282;SDS011;32017;43.700;11.820;2023-05-20T09:20:09;4.00;;;3.90;;
46282;SDS011;32017;43.700;11.820;2023-05-20T09:22:30;3.10;;;3.10;;
46282;SDS011;32017;43.700;11.820;2023-05-20T09:24:50;3.47;;;3.28;;
46282;SDS011;32017;43.700;11.820;2023-05-20T09:27:11;3.33;;;3.22;;
46282;SDS011;32017;43.700;11.820;2023-05-20T09:29:32;2.75;;;2.75;;
46282;SDS011;32017;43.700;11.820;2023-05-20T09:31:54;3.03;;;2.95;;
46282;SDS011;32017;43.700;11.820;2023-05-20T09:34:15;5.38;;;3.75;;
46282;SDS011;32017;43.700;11.820;2023-05-20T09:36:36;3.28;;;3.20;;
46282;SDS011;32017;43.700;11.820;2023-05-20T09:38:59;3.28;;;3.17;;
46282;SDS011;32017;43.700;11.820;2023-05-20T09:41:23;3.70;;;3.40;;
46282;SDS011;32017;43.700;11.820;2023-05-20T09:43:46;3.35;;;3.28;;
46282;SDS011;32017;43.700;11.820;2023-05-20T09:46:07;2.95;;;2.80;;
46282;SDS011;32017;43.700;11.820;2023-05-20T09:48:27;3.83;;;3.72;;
46282;SDS011;32017;43.700;11.820;2023-05-20T09:50:53;2.90;;;2.75;;
46282;SDS011;32017;43.700;11.820;2023-05-20T09:53:14;5.45;;;2.75;;
46282;SDS011;32017;43.700;11.820;2023-05-20T09:55:34;3.00;;;2.90;;
46282;SDS011;32017;43.700;11.820;2023-05-20T09:57:55;3.20;;;3.08;;
46282;SDS011;32017;43.700;11.820;2023-05-20T10:00:17;3.30;;;3.10;;
46282;SDS011;32017;43.700;11.820;2023-05-20T10:02:40;4.45;;;3.45;;
46282;SDS011;32017;43.700;11.820;2023-05-20T10:05:03;3.45;;;3.25;;
46282;SDS011;32017;43.700;11.820;2023-05-20T10:19:44;2.45;;;2.25;;
46282;SDS011;32017;43.700;11.820;2023-05-20T10:22:05;3.35;;;3.25;;
46282;SDS011;32017;43.700;11.820;2023-05-20T10:24:30;3.97;;;2.33;;
46282;SDS011;32017;43.700;11.820;2023-05-20T10:26:53;3.10;;;2.85;;
46282;SDS011;32017;43.700;11.820;2023-05-20T10:29:17;2.65;;;2.55;;
46282;SDS011;32017;43.700;11.820;2023-05-20T10:31:43;2.28;;;2.15;;
46282;SDS011;32017;43.700;11.820;2023-05-20T10:34:04;2.97;;;2.53;;
46282;SDS011;32017;43.700;11.820;2023-05-20T10:36:33;3.15;;;2.85;;
46282;SDS011;32017;43.700;11.820;2023-05-20T10:38:54;3.10;;;2.90;;
46282;SDS011;32017;43.700;11.820;2023-05-20T10:41:19;3.10;;;3.00;;
46282;SDS011;32017;43.700;11.820;2023-05-20T10:43:39;2.03;;;1.90;;
46282;SDS011;32017;43.700;11.820;2023-05-20T10:46:02;2.40;;;2.33;;
46282;SDS011;32017;43.700;11.820;2023-05-20T10:48:30;7.63;;;2.67;;
46282;SDS011;32017;43.700;11.820;2023-05-20T10:50:54;2.83;;;2.25;;
46282;SDS011;32017;43.700;11.820;2023-05-20T10:53:20;1.80;;;1.73;;
46282;SDS011;32017;43.700;11.820;2023-05-20T10:55:53;2.75;;;2.30;;
46282;SDS011;32017;43.700;11.820;2023-05-20T10:58:13;2.35;;;2.33;;
46282;SDS011;32017;43.700;11.820;2023-05-20T11:00:34;3.75;;;2.35;;
46282;SDS011;32017;43.700;11.820;2023-05-20T11:02:58;2.70;;;2.50;;
46282;SDS011;32017;43.700;11.820;2023-05-20T11:05:19;2.55;;;2.45;;
46282;SDS011;32017;43.700;11.820;2023-05-20T11:07:39;2.15;;;2.05;;
46282;SDS011;32017;43.700;11.820;2023-05-20T11:09:59;2.00;;;1.90;;
46282;SDS011;32017;43.700;11.820;2023-05-20T11:12:20;3.58;;;2.28;;
46282;SDS011;32017;43.700;11.820;2023-05-20T11:14:41;2.63;;;2.42;;
46282;SDS011;32017;43.700;11.820;2023-05-20T11:17:01;3.35;;;2.50;;
46282;SDS011;32017;43.700;11.820;2023-05-20T11:19:21;3.15;;;2.92;;
46282;SDS011;32017;43.700;11.820;2023-05-20T11:21:44;2.83;;;2.58;;
46282;SDS011;32017;43.700;11.820;2023-05-20T11:24:05;2.97;;;2.80;;
46282;SDS011;32017;43.700;11.820;2023-05-20T11:26:25;3.90;;;3.35;;
46282;SDS011;32017;43.700;11.820;2023-05-20T11:28:45;3.45;;;2.83;;
46282;SDS011;32017;43.700;11.820;2023-05-20T11:31:05;2.80;;;2.63;;
46282;SDS011;32017;43.700;11.820;2023-05-20T11:33:25;2.70;;;2.60;;
46282;SDS011;32017;43.700;11.820;2023-05-20T11:35:50;3.60;;;3.03;;
46282;SDS011;32017;43.700;11.820;2023-05-20T11:38:11;2.92;;;2.38;;
46282;SDS011;32017;43.700;11.820;2023-05-20T11:40:32;4.10;;;2.72;;
46282;SDS011;32017;43.700;11.820;2023-05-20T11:43:09;3.20;;;3.03;;
46282;SDS011;32017;43.700;11.820;2023-05-20T11:45:40;3.65;;;3.17;;
46282;SDS011;32017;43.700;11.820;2023-05-20T11:48:02;2.65;;;2.28;;
46282;SDS011;32017;43.700;11.820;2023-05-20T11:50:23;3.17;;;2.23;;
46282;SDS011;32017;43.700;11.820;2023-05-20T11:52:43;3.63;;;2.70;;
46282;SDS011;32017;43.700;11.820;2023-05-20T11:55:03;3.50;;;3.35;;
46282;SDS011;32017;43.700;11.820;2023-05-20T11:57:24;2.78;;;2.50;;
46282;SDS011;32017;43.700;11.820;2023-05-20T11:59:44;2.60;;;2.42;;
46282;SDS011;32017;43.700;11.820;2023-05-20T12:02:04;2.25;;;2.15;;
46282;SDS011;32017;43.700;11.820;2023-05-20T12:04:24;2.15;;;2.15;;
46282;SDS011;32017;43.700;11.820;2023-05-20T12:06:44;2.28;;;2.08;;
46282;SDS011;32017;43.700;11.820;2023-05-20T12:09:05;3.65;;;2.15;;
46282;SDS011;32017;43.700;11.820;2023-05-20T12:11:25;2.22;;;2.13;;
46282;SDS011;32017;43.700;11.820;2023-05-20T12:13:45;1.67;;;1.58;;
46282;SDS011;32017;43.700;11.820;2023-05-20T12:16:06;2.10;;;2.00;;
46282;SDS011;32017;43.700;11.820;2023-05-20T12:18:26;2.75;;;1.83;;
46282;SDS011;32017;43.700;11.820;2023-05-20T12:20:46;1.30;;;1.30;;
46282;SDS011;32017;43.700;11.820;2023-05-20T12:23:06;2.50;;;2.15;;
46282;SDS011;32017;43.700;11.820;2023-05-20T12:25:26;2.88;;;1.92;;
46282;SDS011;32017;43.700;11.820;2023-05-20T12:27:47;1.90;;;1.40;;
46282;SDS011;32017;43.700;11.820;2023-05-20T12:30:09;4.00;;;1.35;;
46282;SDS011;32017;43.700;11.820;2023-05-20T12:32:29;1.88;;;1.77;;
46282;SDS011;32017;43.700;11.820;2023-05-20T12:34:50;1.58;;;1.48;;
46282;SDS011;32017;43.700;11.820;2023-05-20T12:37:10;1.95;;;1.85;;
46282;SDS011;32017;43.700;11.820;2023-05-20T12:39:30;1.30;;;1.30;;
46282;SDS011;32017;43.700;11.820;2023-05-20T12:41:50;3.80;;;1.60;;
46282;SDS011;32017;43.700;11.820;2023-05-20T12:44:10;1.77;;;1.67;;
46282;SDS011;32017;43.700;11.820;2023-05-20T12:46:30;1.90;;;1.65;;
46282;SDS011;32017;43.700;11.820;2023-05-20T12:48:51;1.20;;;1.20;;
46282;SDS011;32017;43.700;11.820;2023-05-20T12:51:11;1.50;;;1.50;;
46282;SDS011;32017;43.700;11.820;2023-05-20T12:53:31;1.73;;;1.63;;
46282;SDS011;32017;43.700;11.820;2023-05-20T12:55:51;1.63;;;1.52;;
46282;SDS011;32017;43.700;11.820;2023-05-20T12:58:11;2.25;;;1.85;;
46282;SDS011;32017;43.700;11.820;2023-05-20T13:00:31;1.40;;;1.40;;
46282;SDS011;32017;43.700;11.820;2023-05-20T13:02:52;1.95;;;1.85;;
46282;SDS011;32017;43.700;11.820;2023-05-20T13:05:13;2.83;;;2.72;;
46282;SDS011;32017;43.700;11.820;2023-05-20T13:07:33;2.78;;;2.65;;
46282;SDS011;32017;43.700;11.820;2023-05-20T13:09:53;2.30;;;2.20;;
46282;SDS011;32017;43.700;11.820;2023-05-20T13:12:14;4.15;;;3.90;;
46282;SDS011;32017;43.700;11.820;2023-05-20T13:14:34;2.60;;;2.50;;
46282;SDS011;32017;43.700;11.820;2023-05-20T13:16:54;3.88;;;3.33;;
46282;SDS011;32017;43.700;11.820;2023-05-20T13:19:14;2.58;;;1.83;;
46282;SDS011;32017;43.700;11.820;2023-05-20T13:21:35;1.80;;;1.70;;
46282;SDS011;32017;43.700;11.820;2023-05-20T13:23:55;2.53;;;2.33;;
46282;SDS011;32017;43.700;11.820;2023-05-20T13:26:15;2.28;;;2.17;;
46282;SDS011;32017;43.700;11.820;2023-05-20T13:28:37;4.22;;;3.97;;
46282;SDS011;32017;43.700;11.820;2023-05-20T13:30:58;3.60;;;3.45;;
46282;SDS011;32017;43.700;11.820;2023-05-20T13:33:18;3.28;;;3.08;;
46282;SDS011;32017;43.700;11.820;2023-05-20T13:35:38;2.72;;;2.28;;
46282;SDS011;32017;43.700;11.820;2023-05-20T13:37:58;3.15;;;2.15;;
46282;SDS011;32017;43.700;11.820;2023-05-20T13:40:19;2.35;;;2.17;;
46282;SDS011;32017;43.700;11.820;2023-05-20T13:42:39;1.90;;;1.80;;
46282;SDS011;32017;43.700;11.820;2023-05-20T13:44:59;2.22;;;2.17;;
46282;SDS011;32017;43.700;11.820;2023-05-20T13:47:19;1.75;;;1.65;;
46282;SDS011;32017;43.700;11.820;2023-05-20T13:49:39;2.38;;;2.05;;
46282;SDS011;32017;43.700;11.820;2023-05-20T13:51:59;4.57;;;1.80;;
46282;SDS011;32017;43.700;11.820;2023-05-20T13:54:19;1.60;;;1.35;;
46282;SDS011;32017;43.700;11.820;2023-05-20T13:56:40;1.92;;;1.83;;
46282;SDS011;32017;43.700;11.820;2023-05-20T13:59:00;1.92;;;1.83;;
46282;SDS011;32017;43.700;11.820;2023-05-20T14:01:21;2.35;;;2.25;;
46282;SDS011;32017;43.700;11.820;2023-05-20T14:03:41;2.15;;;2.15;;
46282;SDS011;32017;43.700;11.820;2023-05-20T14:06:01;1.67;;;1.67;;
46282;SDS011;32017;43.700;11.820;2023-05-20T14:08:21;1.35;;;1.20;;
46282;SDS011;32017;43.700;11.820;2023-05-20T14:10:41;1.42;;;1.15;;
46282;SDS011;32017;43.700;11.820;2023-05-20T14:13:01;2.88;;;1.92;;